Time;durP1;ratioP1;P1;durP2;ratioP2;P2;SDS_P1;SDS_P2;PMS_P1;PMS_P2;Temp;Humidity;BMP_temperature;BMP_pressure;BME280_temperature;BME280_humidity;BME280_pressure;Samples;Min_cycle;Max_cycle;Signal;HPM_P1;HPM_P2
2024/01/15 00:01:30;;;;;;;35.50;20.37;;;;;;;;;;4995970;28;20314;-60
2024/01/15 00:03:59;;;;;;;38.67;21.40;;;;;;;;;;4999848;28;20656;-59
2024/01/15 00:06:26;;;;;;;30.43;18.70;;;;;;;;;;4985088;28;20209;-59
2024/01/15 00:08:54;;;;;;;28.57;19.37;;;;;;;;;;4992820;28;20206;-59
2024/01/15 00:11:21;;;;;;;31.40;20.13;;;;;;;;;;4991882;28;20233;-59
2024/01/15 00:13:48;;;;;;;29.13;17.97;;;;;;;;;;4998048;28;20213;-59
2024/01/15 00:16:15;;;;;;;26.97;17.07;;;-0.60;99.90;;;;;;5003560;28;20205;-59
2024/01/15 00:18:42;;;;;;;28.80;18.30;;;-0.10;99.90;;;;;;5012350;28;20254;-59
2024/01/15 00:21:10;;;;;;;34.50;18.13;;;-0.40;99.90;;;;;;5011381;28;20607;-59
2024/01/15 00:23:38;;;;;;;29.70;17.80;;;;;;;;;;5010263;28;20207;-59
2024/01/15 00:26:05;;;;;;;28.67;16.27;;;-0.30;99.90;;;;;;5004150;28;20204;-59
2024/01/15 00:28:32;;;;;;;26.93;16.37;;;;;;;;;;5012239;28;20214;-59
2024/01/15 00:30:59;;;;;;;23.63;15.73;;;;;;;;;;4995673;28;20721;-59
2024/01/15 00:33:26;;;;;;;27.00;15.27;;;-0.20;99.90;;;;;;4991378;28;20216;-59
2024/01/15 00:35:53;;;;;;;26.17;15.77;;;;;;;;;;5000393;28;20226;-59
2024/01/15 00:38:21;;;;;;;23.00;15.63;;;-0.30;99.90;;;;;;4991758;28;20260;-59
2024/01/15 00:40:49;;;;;;;23.57;15.40;;;;;;;;;;4992244;28;20212;-59
2024/01/15 00:43:18;;;;;;;29.03;16.57;;;-0.20;99.90;;;;;;4993672;28;20752;-59
2024/01/15 00:45:45;;;;;;;25.20;15.47;;;0.10;99.90;;;;;;5002353;28;20197;-59
2024/01/15 00:48:12;;;;;;;25.77;16.83;;;;;;;;;;4992833;28;20209;-58
2024/01/15 00:50:39;;;;;;;27.40;15.57;;;;;;;;;;4991804;28;20217;-59
2024/01/15 00:53:06;;;;;;;26.33;16.77;;;;;;;;;;4999669;28;20635;-58
2024/01/15 00:55:36;;;;;;;28.57;17.07;;;;;;;;;;5004363;28;20254;-59
2024/01/15 00:58:03;;;;;;;29.30;17.07;;;;;;;;;;5012198;28;20562;-59
2024/01/15 01:00:30;;;;;;;29.93;18.80;;;;;;;;;;5011308;28;20201;-59
2024/01/15 01:02:57;;;;;;;31.10;17.93;;;;;;;;;;5004706;28;20229;-59
2024/01/15 01:05:24;;;;;;;24.10;16.30;;;;;;;;;;5003099;28;20259;-59
2024/01/15 01:07:52;;;;;;;31.53;19.20;;;;;;;;;;5005572;28;20201;-59
2024/01/15 01:10:19;;;;;;;25.47;16.00;;;;;;;;;;4991936;28;20212;-59
2024/01/15 01:12:47;;;;;;;27.80;18.50;;;;;;;;;;4989215;28;20285;-59
2024/01/15 01:15:15;;;;;;;28.07;17.33;;;;;;;;;;5002518;28;20253;-59
2024/01/15 01:17:42;;;;;;;27.53;16.87;;;;;;;;;;5012252;28;20212;-59
2024/01/15 01:20:10;;;;;;;27.10;15.97;;;;;;;;;;5000413;28;20197;-59
2024/01/15 01:22:37;;;;;;;34.37;17.90;;;;;;;;;;4992335;28;20639;-59
2024/01/15 01:25:05;;;;;;;29.83;16.53;;;;;;;;;;4991858;28;20242;-59
2024/01/15 01:27:32;;;;;;;28.50;16.60;;;;;;;;;;5000846;28;20673;-59
2024/01/15 01:30:01;;;;;;;27.30;18.07;;;;;;;;;;4992770;28;20207;-59
2024/01/15 01:32:28;;;;;;;26.20;16.63;;;;;;;;;;4992183;28;20280;-59
2024/01/15 01:34:55;;;;;;;28.27;18.07;;;;;;;;;;4992362;28;20264;-59
2024/01/15 01:37:22;;;;;;;25.63;17.07;;;;;;;;;;4992083;28;20258;-58
2024/01/15 01:39:50;;;;;;;30.43;18.23;;;;;;;;;;4997145;28;20204;-58
2024/01/15 01:42:17;;;;;;;30.43;17.83;;;;;;;;;;4991852;28;20217;-58
2024/01/15 01:44:44;;;;;;;30.27;17.83;;;;;;;;;;4992095;28;20212;-58
2024/01/15 01:47:13;;;;;;;26.23;17.13;;;;;;;;;;4992368;28;20199;-59
2024/01/15 01:49:41;;;;;;;30.17;18.80;;;0.20;99.90;;;;;;4991172;28;20210;-59
2024/01/15 01:52:12;;;;;;;37.10;21.73;;;;;;;;;;4997932;28;20255;-58
2024/01/15 01:54:41;;;;;;;37.80;21.10;;;0.10;99.90;;;;;;4990310;28;20672;-58
2024/01/15 01:57:12;;;;;;;34.20;18.83;;;;;;;;;;4989975;28;20251;-59
2024/01/15 01:59:39;;;;;;;37.33;20.80;;;0.10;99.90;;;;;;4990017;28;20741;-58
2024/01/15 02:02:10;;;;;;;37.23;21.83;;;;;;;;;;4988798;28;20326;-58
2024/01/15 02:04:39;;;;;;;32.40;19.47;;;-0.20;99.90;;;;;;4993605;28;20691;-58
2024/01/15 02:07:07;;;;;;;32.07;18.90;;;-0.10;99.90;;;;;;5011641;28;20205;-59
2024/01/15 02:09:34;;;;;;;29.67;19.23;;;0.10;99.90;;;;;;5004072;28;20198;-58
2024/01/15 02:12:01;;;;;;;30.20;18.17;;;0.10;99.90;;;;;;4990795;28;20695;-58
2024/01/15 02:14:28;;;;;;;30.37;17.37;;;0.10;99.90;;;;;;4991350;28;20624;-58
2024/01/15 02:16:55;;;;;;;33.70;19.67;;;0.10;99.90;;;;;;5000767;28;20210;-59
2024/01/15 02:19:22;;;;;;;32.30;16.77;;;-0.10;99.90;;;;;;5014347;28;20200;-59
2024/01/15 02:21:50;;;;;;;31.57;17.87;;;0.00;99.90;;;;;;5014206;28;20232;-59
2024/01/15 02:24:18;;;;;;;33.87;20.23;;;-0.10;99.90;;;;;;5014940;28;20650;-59
2024/01/15 02:26:46;;;;;;;23.03;15.97;;;;;;;;;;5001989;28;20272;-58
2024/01/15 02:29:14;;;;;;;28.87;17.87;;;;;;;;;;5005002;28;20689;-58
2024/01/15 02:31:41;;;;;;;32.47;17.17;;;;;;;;;;5014320;28;20656;-58
2024/01/15 02:34:08;;;;;;;28.50;17.20;;;0.10;99.90;;;;;;5007334;28;20225;-58
2024/01/15 02:36:35;;;;;;;34.10;19.03;;;0.20;99.90;;;;;;5007662;28;20202;-58
2024/01/15 02:39:02;;;;;;;33.33;18.77;;;0.00;99.90;;;;;;5014684;28;20647;-58
2024/01/15 02:41:30;;;;;;;29.57;18.70;;;;;;;;;;5001424;28;20252;-59
2024/01/15 02:43:57;;;;;;;27.30;17.87;;;;;;;;;;4995018;28;20669;-58
2024/01/15 02:46:25;;;;;;;25.53;16.23;;;;;;;;;;4995602;28;20206;-59
2024/01/15 02:48:52;;;;;;;28.77;18.23;;;;;;;;;;4995460;28;20290;-58
2024/01/15 02:51:19;;;;;;;31.27;18.00;;;;;;;;;;4994234;28;20275;-59
2024/01/15 02:53:46;;;;;;;27.60;16.87;;;;;;;;;;5008610;28;20222;-58
2024/01/15 02:56:13;;;;;;;25.77;15.17;;;0.00;99.90;;;;;;5012843;28;20701;-58
2024/01/15 02:58:42;;;;;;;26.67;17.03;;;0.10;99.90;;;;;;5008610;28;20252;-59
2024/01/15 03:01:09;;;;;;;27.47;15.47;;;0.10;99.90;;;;;;4994283;28;20287;-58
2024/01/15 03:03:36;;;;;;;23.50;12.20;;;;;;;;;;5002502;28;20260;-59
2024/01/15 03:06:03;;;;;;;22.23;14.20;;;0.20;99.90;;;;;;5000997;28;20200;-59
2024/01/15 03:08:30;;;;;;;23.77;13.30;;;0.30;99.90;;;;;;5004978;28;20262;-58
2024/01/15 03:10:57;;;;;;;26.60;15.07;;;0.60;99.90;;;;;;5013515;28;20278;-58
2024/01/15 03:13:24;;;;;;;27.30;14.07;;;0.60;99.90;;;;;;5012200;28;20228;-58
2024/01/15 03:15:52;;;;;;;23.73;12.30;;;0.80;99.90;;;;;;5004948;28;20201;-58
2024/01/15 03:18:19;;;;;;;23.27;13.57;;;;;;;;;;5002149;28;20259;-58
2024/01/15 03:20:47;;;;;;;20.93;12.53;;;;;;;;;;5007899;28;20196;-58
2024/01/15 03:23:14;;;;;;;22.57;11.73;;;;;;;;;;5012366;28;20216;-58
2024/01/15 03:25:41;;;;;;;20.80;11.43;;;1.40;99.90;;;;;;5014625;28;20204;-59
2024/01/15 03:28:08;;;;;;;21.67;12.60;;;1.40;99.90;;;;;;5014139;28;20204;-58
2024/01/15 03:30:35;;;;;;;20.97;11.00;;;;;;;;;;4996164;28;20208;-58
2024/01/15 03:33:04;;;;;;;21.77;11.20;;;;;;;;;;5003101;28;20231;-58
2024/01/15 03:35:30;;;;;;;22.53;12.50;;;1.40;99.90;;;;;;4994464;28;20202;-58
2024/01/15 03:37:58;;;;;;;21.77;12.57;;;;;;;;;;4994298;28;20673;-58
2024/01/15 03:40:25;;;;;;;25.23;12.60;;;;;;;;;;4993694;28;20209;-58
2024/01/15 03:42:52;;;;;;;21.23;11.70;;;;;;;;;;4999360;28;20303;-58
2024/01/15 03:45:20;;;;;;;22.93;12.63;;;;;;;;;;5005368;28;20204;-58
2024/01/15 03:47:46;;;;;;;21.73;12.03;;;1.50;99.90;;;;;;5013469;28;20685;-59
2024/01/15 03:50:15;;;;;;;27.07;12.30;;;;;;;;;;4994588;28;20199;-58
2024/01/15 03:52:42;;;;;;;18.30;10.23;;;;;;;;;;4993702;28;20315;-58
2024/01/15 03:55:10;;;;;;;19.00;11.80;;;;;;;;;;4996373;28;20256;-58
2024/01/15 03:57:37;;;;;;;21.07;10.47;;;;;;;;;;4998835;28;20685;-58
2024/01/15 04:00:04;;;;;;;18.37;9.93;;;;;;;;;;5009551;28;20250;-58
2024/01/15 04:02:32;;;;;;;18.27;10.23;;;;;;;;;;5012838;28;20256;-58
2024/01/15 04:04:59;;;;;;;14.77;9.07;;;;;;;;;;5007893;28;20338;-58
2024/01/15 04:07:27;;;;;;;16.80;9.80;;;;;;;;;;4994098;28;20206;-58
2024/01/15 04:09:55;;;;;;;14.97;8.70;;;;;;;;;;5004956;28;20200;-58
2024/01/15 04:12:22;;;;;;;19.57;8.73;;;;;;;;;;5012346;28;20648;-58
2024/01/15 04:14:49;;;;;;;12.73;8.43;;;;;;;;;;5012923;28;20224;-57
2024/01/15 04:17:17;;;;;;;13.97;8.03;;;;;;;;;;5010012;28;20690;-58
2024/01/15 04:19:45;;;;;;;13.17;8.27;;;;;;;;;;4999832;28;20201;-58
2024/01/15 04:22:12;;;;;;;18.77;9.70;;;;;;;;;;5004226;28;20275;-58
2024/01/15 04:24:41;;;;;;;13.53;8.60;;;;;;;;;;5000306;28;20288;-58
2024/01/15 04:27:12;;;;;;;16.77;7.97;;;;;;;;;;5009827;28;20200;-58
2024/01/15 04:29:39;;;;;;;18.57;9.73;;;;;;;;;;5009377;28;20603;-58
2024/01/15 04:32:07;;;;;;;13.43;7.40;;;;;;;;;;4991557;28;20248;-58
2024/01/15 04:34:34;;;;;;;16.67;8.67;;;;;;;;;;4992847;28;20763;-58
2024/01/15 04:37:01;;;;;;;13.73;7.63;;;;;;;;;;4998130;28;20205;-58
2024/01/15 04:39:28;;;;;;;13.17;8.30;;;;;;;;;;4992686;28;20197;-58
2024/01/15 04:41:57;;;;;;;15.43;7.70;;;;;;;;;;4991877;28;20243;-58
2024/01/15 04:44:24;;;;;;;12.53;7.13;;;;;;;;;;4992900;28;20209;-58
2024/01/15 04:46:52;;;;;;;12.20;7.43;;;;;;;;;;4992648;28;20658;-58
2024/01/15 04:49:19;;;;;;;9.03;5.93;;;;;;;;;;4996639;28;20264;-59
2024/01/15 04:51:46;;;;;;;12.70;5.80;;;;;;;;;;4991897;28;20226;-58
2024/01/15 04:54:17;;;;;;;8.07;5.17;;;;;;;;;;4992574;28;20288;-58
2024/01/15 04:56:45;;;;;;;10.60;5.70;;;;;;;;;;4992837;28;20204;-60
2024/01/15 04:59:14;;;;;;;12.47;6.67;;;1.50;99.90;;;;;;4992742;28;20239;-58
2024/01/15 05:01:41;;;;;;;6.53;5.10;;;1.60;99.90;;;;;;4994357;28;20235;-58
2024/01/15 05:04:08;;;;;;;8.33;4.73;;;1.60;99.90;;;;;;4994903;28;20251;-58
2024/01/15 05:06:35;;;;;;;8.37;4.67;;;;;;;;;;4989858;28;20203;-58
2024/01/15 05:09:04;;;;;;;6.60;4.27;;;;;;;;;;4994585;28;20631;-58
2024/01/15 05:11:31;;;;;;;8.07;4.47;;;;;;;;;;4991285;28;20229;-58
2024/01/15 05:13:58;;;;;;;7.03;3.10;;;;;;;;;;4997741;28;20232;-59
2024/01/15 05:16:27;;;;;;;6.13;3.47;;;;;;;;;;4997206;28;20870;-58
2024/01/15 05:18:54;;;;;;;5.90;2.67;;;;;;;;;;4991832;28;20215;-57
2024/01/15 05:21:21;;;;;;;4.30;3.67;;;;;;;;;;4990723;28;20782;-58
2024/01/15 05:23:48;;;;;;;4.47;2.87;;;;;;;;;;4989014;28;20203;-58
2024/01/15 05:26:16;;;;;;;4.17;2.40;;;;;;;;;;4998421;28;20208;-58
2024/01/15 05:28:43;;;;;;;2.60;2.07;;;;;;;;;;4990007;28;20256;-58
2024/01/15 05:31:10;;;;;;;1.87;1.73;;;;;;;;;;4990955;28;20252;-58
2024/01/15 05:33:40;;;;;;;3.07;1.60;;;;;;;;;;4991521;28;20214;-58
2024/01/15 05:36:07;;;;;;;3.73;2.20;;;;;;;;;;4991645;28;20290;-58
2024/01/15 05:38:35;;;;;;;2.57;1.43;;;;;;;;;;4994675;28;20204;-58
2024/01/15 05:41:02;;;;;;;2.93;2.07;;;;;;;;;;4994346;28;20224;-59
2024/01/15 05:43:29;;;;;;;2.53;1.73;;;;;;;;;;4991633;28;20203;-58
2024/01/15 05:45:56;;;;;;;4.37;1.63;;;;;;;;;;4992197;28;20296;-58
2024/01/15 05:48:23;;;;;;;1.50;1.17;;;;;;;;;;4992884;28;20261;-58
2024/01/15 05:50:52;;;;;;;2.93;1.17;;;;;;;;;;4991812;28;20203;-57
2024/01/15 05:53:19;;;;;;;5.43;3.07;;;;;;;;;;4995694;28;20277;-58
2024/01/15 05:55:47;;;;;;;3.77;1.40;;;;;;;;;;4995317;28;20201;-59
2024/01/15 05:58:14;;;;;;;3.10;1.77;;;1.80;99.90;;;;;;4995296;28;20206;-58
2024/01/15 06:00:41;;;;;;;3.13;2.10;;;;;;;;;;4997487;28;20231;-58
2024/01/15 06:03:08;;;;;;;2.10;1.87;;;;;;;;;;4995483;28;20638;-58
2024/01/15 06:05:35;;;;;;;1.30;1.00;;;;;;;;;;4996571;28;20250;-58
2024/01/15 06:08:04;;;;;;;1.43;1.13;;;;;;;;;;4996759;28;20213;-58
2024/01/15 06:10:31;;;;;;;2.03;1.70;;;;;;;;;;5001403;28;20203;-59
2024/01/15 06:12:58;;;;;;;2.50;1.53;;;;;;;;;;4996520;28;20644;-58
2024/01/15 06:15:25;;;;;;;3.70;1.63;;;1.60;99.90;;;;;;5003930;28;20220;-60
2024/01/15 06:17:53;;;;;;;2.23;1.20;;;1.70;99.90;;;;;;4994107;28;20208;-59
2024/01/15 06:20:20;;;;;;;2.97;2.20;;;;;;;;;;4993911;28;20212;-58
2024/01/15 06:22:47;;;;;;;4.07;2.17;;;;;;;;;;5004798;28;20273;-58
2024/01/15 06:25:16;;;;;;;3.50;1.70;;;;;;;;;;4994682;28;20193;-58
2024/01/15 06:27:43;;;;;;;2.57;1.60;;;;;;;;;;5000863;28;20257;-58
2024/01/15 06:30:11;;;;;;;1.53;1.27;;;;;;;;;;4993570;28;20751;-58
2024/01/15 06:32:38;;;;;;;2.93;1.50;;;;;;;;;;4994359;28;20229;-58
2024/01/15 06:35:06;;;;;;;2.17;1.97;;;;;;;;;;4993951;28;20218;-58
2024/01/15 06:37:33;;;;;;;1.50;1.30;;;;;;;;;;5004426;28;20196;-59
2024/01/15 06:40:01;;;;;;;2.43;1.47;;;;;;;;;;4998848;28;20202;-59
2024/01/15 06:42:29;;;;;;;3.57;1.73;;;;;;;;;;4993538;28;20306;-59
2024/01/15 06:44:56;;;;;;;4.40;2.33;;;;;;;;;;4996590;28;20205;-59
2024/01/15 06:47:24;;;;;;;1.73;1.30;;;;;;;;;;4992967;28;20245;-59
2024/01/15 06:49:52;;;;;;;2.90;1.50;;;;;;;;;;4994520;28;20251;-59
2024/01/15 06:52:19;;;;;;;3.77;1.57;;;1.70;99.90;;;;;;4994355;28;20226;-58
2024/01/15 06:54:46;;;;;;;2.13;1.70;;;1.60;99.90;;;;;;5003788;28;20217;-59
2024/01/15 06:57:15;;;;;;;3.00;1.77;;;;;;;;;;5009324;28;20263;-58
2024/01/15 06:59:43;;;;;;;3.87;1.77;;;1.60;99.90;;;;;;4993275;28;20205;-58
2024/01/15 07:02:14;;;;;;;1.77;1.10;;;;;;;;;;4994068;28;20241;-58
2024/01/15 07:04:41;;;;;;;3.93;1.60;;;1.60;99.90;;;;;;5002947;28;20199;-59
2024/01/15 07:07:12;;;;;;;1.73;1.20;;;2.00;99.90;;;;;;4997320;28;20200;-58
2024/01/15 07:09:39;;;;;;;2.47;1.20;;;;;;;;;;4995230;28;20883;-59
2024/01/15 07:12:11;;;;;;;3.87;1.80;;;;;;;;;;4992925;28;20217;-59
2024/01/15 07:14:38;;;;;;;2.73;1.50;;;1.60;99.90;;;;;;4999028;28;20310;-58
2024/01/15 07:17:11;;;;;;;3.30;1.50;;;;;;;;;;4997959;28;20259;-59
2024/01/15 07:19:38;;;;;;;2.20;1.23;;;;;;;;;;4996879;28;20206;-58
2024/01/15 07:22:09;;;;;;;3.87;1.47;;;;;;;;;;5006630;28;20225;-58
2024/01/15 07:24:36;;;;;;;2.27;1.27;;;1.50;99.90;;;;;;4999928;28;20268;-58
2024/01/15 07:27:08;;;;;;;2.43;2.03;;;1.50;99.90;;;;;;5002286;28;20735;-59
2024/01/15 07:29:37;;;;;;;3.47;1.73;;;1.50;99.90;;;;;;5001520;28;20234;-59
2024/01/15 07:32:04;;;;;;;4.70;2.20;;;1.50;99.90;;;;;;4997016;28;20750;-58
2024/01/15 07:34:33;;;;;;;2.03;1.17;;;;;;;;;;4999418;28;20217;-59
2024/01/15 07:37:00;;;;;;;3.13;1.83;;;;;;;;;;5003262;28;20748;-58
2024/01/15 07:39:28;;;;;;;2.93;1.57;;;;;;;;;;5000863;28;20201;-59
2024/01/15 07:41:56;;;;;;;2.80;1.77;;;;;;;;;;4998758;28;20231;-59
2024/01/15 07:44:23;;;;;;;2.83;1.60;;;;;;;;;;4996400;28;20210;-59
2024/01/15 07:46:51;;;;;;;2.30;1.40;;;;;;;;;;4991516;28;20223;-58
2024/01/15 07:49:18;;;;;;;1.70;1.60;;;;;;;;;;4997984;28;20203;-59
2024/01/15 07:51:47;;;;;;;6.27;1.93;;;;;;;;;;4989036;28;20311;-59
2024/01/15 07:54:14;;;;;;;13.33;4.50;;;;;;;;;;5001662;28;20217;-59
2024/01/15 07:56:57;;;;;;;5.00;3.03;;;;;;;;;;5006655;28;20205;-58
2024/01/15 07:59:24;;;;;;;6.67;3.60;;;;;;;;;;4999848;28;20584;-59
2024/01/15 08:01:51;;;;;;;12.83;6.00;;;1.50;99.90;;;;;;4991412;28;20234;-58
2024/01/15 08:04:18;;;;;;;5.90;2.87;;;1.50;99.90;;;;;;4997727;28;20837;-59
2024/01/15 08:06:47;;;;;;;5.47;2.57;;;1.60;99.90;;;;;;4992796;28;20728;-59
2024/01/15 08:09:14;;;;;;;9.03;4.33;;;1.50;99.90;;;;;;5004840;28;20294;-58
2024/01/15 08:11:42;;;;;;;14.83;6.20;;;1.50;99.90;;;;;;4990502;28;20228;-58
2024/01/15 08:14:09;;;;;;;5.00;2.43;;;;;;;;;;4993788;28;20309;-58
2024/01/15 08:16:36;;;;;;;4.30;2.20;;;;;;;;;;4993753;28;20256;-59
2024/01/15 08:19:03;;;;;;;5.70;2.40;;;;;;;;;;4996498;28;20258;-59
2024/01/15 08:21:31;;;;;;;4.50;3.17;;;;;;;;;;4996799;28;20220;-58
2024/01/15 08:24:00;;;;;;;2.93;1.97;;;;;;;;;;4993319;28;20707;-58
2024/01/15 08:26:27;;;;;;;3.10;2.13;;;;;;;;;;4992495;28;20260;-58
2024/01/15 08:28:55;;;;;;;3.83;1.87;;;;;;;;;;4992324;28;20277;-58
2024/01/15 08:31:22;;;;;;;2.87;1.90;;;;;;;;;;4991512;28;20227;-58
2024/01/15 08:33:49;;;;;;;5.07;2.00;;;;;;;;;;4997434;28;20627;-58
2024/01/15 08:36:17;;;;;;;3.23;2.30;;;;;;;;;;5002557;28;20204;-58
2024/01/15 08:38:44;;;;;;;3.90;2.73;;;;;;;;;;4992032;28;20209;-58
2024/01/15 08:41:14;;;;;;;4.90;2.23;;;;;;;;;;4989513;28;20251;-59
2024/01/15 08:43:41;;;;;;;2.80;2.23;;;;;;;;;;4991036;28;20202;-58
2024/01/15 08:46:08;;;;;;;5.40;2.77;;;;;;;;;;4992225;28;20289;-58
2024/01/15 08:48:36;;;;;;;3.27;2.53;;;;;;;;;;4995054;28;20676;-58
2024/01/15 08:51:03;;;;;;;5.10;3.47;;;;;;;;;;4999417;28;20605;-57
2024/01/15 08:53:31;;;;;;;4.50;2.93;;;;;;;;;;4991315;28;20292;-59
2024/01/15 08:55:58;;;;;;;10.67;4.77;;;;;;;;;;4991081;28;20221;-59
2024/01/15 08:58:27;;;;;;;6.63;3.90;;;;;;;;;;4991693;28;20268;-58
2024/01/15 09:00:54;;;;;;;8.50;4.43;;;;;;;;;;4990447;28;20209;-59
2024/01/15 09:03:23;;;;;;;7.80;4.00;;;;;;;;;;4990732;28;20251;-59
2024/01/15 09:05:50;;;;;;;3.57;2.20;;;;;;;;;;4992799;28;20193;-61
2024/01/15 09:08:18;;;;;;;2.90;2.23;;;;;;;;;;4997080;28;20234;-61
2024/01/15 09:10:45;;;;;;;5.37;2.53;;;;;;;;;;4997142;28;20205;-60
2024/01/15 09:13:13;;;;;;;3.07;2.30;;;;;;;;;;4992925;28;20233;-60
2024/01/15 09:15:42;;;;;;;5.00;2.57;;;;;;;;;;4992810;28;20217;-61
2024/01/15 09:18:09;;;;;;;3.13;2.17;;;;;;;;;;4992532;28;20201;-60
2024/01/15 09:20:38;;;;;;;5.77;2.80;;;;;;;;;;4991786;28;20205;-61
2024/01/15 09:23:06;;;;;;;4.57;2.27;;;;;;;;;;5003010;28;20229;-60
2024/01/15 09:25:33;;;;;;;1.37;1.20;;;;;;;;;;5003128;28;20209;-60
2024/01/15 09:28:00;;;;;;;1.80;1.30;;;;;;;;;;5009657;28;20218;-60
2024/01/15 09:30:27;;;;;;;2.73;1.87;;;1.60;99.90;;;;;;5006690;28;20692;-60
2024/01/15 09:32:57;;;;;;;2.13;1.50;;;1.70;99.90;;;;;;4999327;28;20224;-61
2024/01/15 09:35:24;;;;;;;2.77;1.30;;;;;;;;;;5012924;28;20624;-61
2024/01/15 09:37:52;;;;;;;2.80;1.47;;;;;;;;;;5008066;28;20206;-60
2024/01/15 09:40:19;;;;;;;4.03;1.73;;;;;;;;;;5002531;28;20207;-61
2024/01/15 09:42:48;;;;;;;1.80;1.40;;;;;;;;;;5008671;28;20224;-60
2024/01/15 09:45:15;;;;;;;1.67;1.30;;;;;;;;;;5007845;28;20313;-60
2024/01/15 09:47:43;;;;;;;2.17;1.60;;;;;;;;;;5001455;28;20200;-61
2024/01/15 09:50:12;;;;;;;2.97;2.07;;;;;;;;;;5011596;28;20310;-59
2024/01/15 09:52:40;;;;;;;4.30;2.22;;;;;;;;;;5011418;28;20440;-61
2024/01/15 09:55:07;;;;;;;4.40;2.33;;;;;;;;;;5005913;28;20315;-62
2024/01/15 09:57:35;;;;;;;2.88;1.90;;;;;;;;;;4999451;28;20868;-64
2024/01/15 10:00:05;;;;;;;1.97;1.80;;;;;;;;;;5010153;28;20378;-67
2024/01/15 10:02:32;;;;;;;2.63;1.43;;;;;;;;;;5005489;28;20304;-65
2024/01/15 10:04:59;;;;;;;2.80;1.63;;;;;;;;;;5008238;28;20201;-63
2024/01/15 10:07:29;;;;;;;4.00;1.10;;;;;;;;;;5011102;28;20207;-65
2024/01/15 10:09:56;;;;;;;2.87;1.50;;;;;;;;;;5008741;28;20209;-66
2024/01/15 10:12:23;;;;;;;1.47;1.00;;;;;;;;;;5007158;28;20267;-70
2024/01/15 10:14:52;;;;;;;4.60;1.30;;;;;;;;;;5004227;28;20674;-64
2024/01/15 10:17:19;;;;;;;5.07;1.87;;;;;;;;;;5007275;28;20723;-62
2024/01/15 10:19:46;;;;;;;3.53;2.13;;;1.70;99.90;;;;;;4994154;28;20291;-64
2024/01/15 10:22:15;;;;;;;6.47;2.87;;;1.60;99.90;;;;;;4992319;28;20224;-65
2024/01/15 10:24:45;;;;;;;2.77;1.20;;;;;;;;;;4986291;28;20910;-67
2024/01/15 10:27:12;;;;;;;1.97;1.73;;;;;;;;;;4986085;28;20209;-68
2024/01/15 10:29:40;;;;;;;2.13;1.30;;;;;;;;;;4997518;28;20676;-66
2024/01/15 10:32:11;;;;;;;1.80;1.43;;;;;;;;;;4991203;28;20314;-68
2024/01/15 10:34:42;;;;;;;2.73;1.50;;;;;;;;;;4986080;28;20783;-65
2024/01/15 10:37:12;;;;;;;2.13;1.37;;;;;;;;;;4990186;28;20209;-64
2024/01/15 10:39:39;;;;;;;2.90;1.87;;;;;;;;;;4985088;28;20293;-66
2024/01/15 10:42:11;;;;;;;3.83;1.83;;;;;;;;;;4988549;28;20308;-63
2024/01/15 10:44:39;;;;;;;3.37;1.50;;;;;;;;;;4983681;28;20205;-63
2024/01/15 10:47:09;;;;;;;1.27;0.80;;;1.70;99.90;;;;;;4982058;28;20232;-66
2024/01/15 10:49:37;;;;;;;1.47;1.00;;;1.90;99.90;;;;;;4986567;28;20597;-69
2024/01/15 10:52:04;;;;;;;3.37;0.97;;;1.90;99.90;;;;;;4982018;28;20247;-68
2024/01/15 10:54:31;;;;;;;1.77;1.50;;;;;;;;;;4984843;28;20279;-66
2024/01/15 10:56:59;;;;;;;1.73;1.00;;;;;;;;;;4984848;28;20363;-67
2024/01/15 10:59:28;;;;;;;1.93;1.17;;;;;;;;;;4985874;28;21776;-69
2024/01/15 11:01:56;;;;;;;5.50;1.47;;;;;;;;;;4985252;28;20249;-66
2024/01/15 11:04:26;;;;;;;4.40;1.03;;;;;;;;;;4983084;28;20679;-62
2024/01/15 11:06:54;;;;;;;1.30;1.13;;;1.90;99.90;;;;;;4983752;28;20208;-63
2024/01/15 11:09:21;;;;;;;2.17;1.20;;;1.80;99.90;;;;;;4982600;28;20312;-65
2024/01/15 11:11:52;;;;;;;1.33;1.10;;;1.80;99.90;;;;;;4986654;28;20225;-68
2024/01/15 11:14:43;;;;;;;1.70;1.37;;;2.10;99.90;;;;;;4991658;28;20209;-64
2024/01/15 11:17:11;;;;;;;1.07;1.07;;;;;;;;;;5002299;28;20285;-67
2024/01/15 11:19:39;;;;;;;2.97;1.40;;;;;;;;;;5001832;28;20201;-66
2024/01/15 11:22:11;;;;;;;2.40;0.77;;;;;;;;;;4990629;28;20613;-67
2024/01/15 11:24:39;;;;;;;7.40;1.03;;;;;;;;;;4992919;28;20244;-67
2024/01/15 11:27:07;;;;;;;3.23;1.10;;;;;;;;;;5000722;28;20201;-67
2024/01/15 11:29:35;;;;;;;3.23;1.07;;;;;;;;;;4989721;28;20240;-62
2024/01/15 11:32:08;;;;;;;2.63;1.53;;;;;;;;;;4983811;28;20318;-62
2024/01/15 11:34:53;;;;;;;1.63;1.53;;;;;;;;;;4982818;28;20246;-62
2024/01/15 11:37:21;;;;;;;2.87;1.40;;;;;;;;;;4987647;28;20233;-62
2024/01/15 11:39:48;;;;;;;9.63;1.17;;;;;;;;;;4988466;28;20268;-62
2024/01/15 11:42:15;;;;;;;2.37;1.53;;;1.90;99.90;;;;;;4985000;28;20230;-62
2024/01/15 11:44:43;;;;;;;4.10;1.67;;;2.10;99.90;;;;;;4987051;28;20225;-62
2024/01/15 11:47:13;;;;;;;4.83;1.57;;;;;;;;;;4986954;28;20255;-62
2024/01/15 11:50:05;;;;;;;2.60;1.57;;;;;;;;;;4984199;28;20197;-61
2024/01/15 11:52:35;;;;;;;3.37;1.40;;;;;;;;;;4965859;28;20605;-68
2024/01/15 11:55:12;;;;;;;3.67;2.00;;;2.10;99.90;;;;;;4985745;28;20216;-67
2024/01/15 11:57:44;;;;;;;6.87;2.13;;;;;;;;;;4985477;28;20620;-66
2024/01/15 12:00:12;;;;;;;2.30;1.37;;;;;;;;;;4980280;28;20268;-70
2024/01/15 12:02:42;;;;;;;1.80;1.60;;;;;;;;;;4987361;28;20322;-67
2024/01/15 12:05:09;;;;;;;2.10;1.70;;;;;;;;;;4981451;28;20245;-69
2024/01/15 12:07:37;;;;;;;1.63;1.53;;;;;;;;;;4991274;28;20197;-68
2024/01/15 12:10:04;;;;;;;2.00;1.50;;;;;;;;;;4984336;28;20688;-70
2024/01/15 12:12:39;;;;;;;1.70;1.60;;;;;;;;;;4980522;28;21120;-68
2024/01/15 12:15:06;;;;;;;3.57;1.70;;;;;;;;;;4982506;28;20208;-69
2024/01/15 12:17:34;;;;;;;2.10;1.90;;;;;;;;;;4983853;28;20296;-70
2024/01/15 12:20:02;;;;;;;2.17;1.17;;;;;;;;;;4990940;28;20202;-69
2024/01/15 12:22:30;;;;;;;4.60;1.70;;;;;;;;;;4984758;28;20254;-67
2024/01/15 12:24:57;;;;;;;1.53;1.27;;;;;;;;;;4991487;28;20206;-67
2024/01/15 12:27:24;;;;;;;4.70;2.07;;;;;;;;;;4994292;28;20201;-67
2024/01/15 12:29:52;;;;;;;1.90;1.50;;;;;;;;;;4994160;28;20227;-65
2024/01/15 12:32:20;;;;;;;2.50;1.70;;;;;;;;;;4985848;28;20229;-65
2024/01/15 12:34:47;;;;;;;4.13;2.37;;;2.30;99.90;;;;;;4986021;28;20685;-66
2024/01/15 12:37:19;;;;;;;4.60;2.20;;;2.30;99.90;;;;;;4992666;28;20224;-67
2024/01/15 12:39:46;;;;;;;3.13;2.03;;;2.40;99.90;;;;;;4992168;28;20202;-64
2024/01/15 12:42:14;;;;;;;5.50;2.13;;;2.30;99.90;;;;;;4980499;28;20286;-63
2024/01/15 12:44:41;;;;;;;3.17;1.57;;;2.50;99.90;;;;;;4979239;28;20202;-59
2024/01/15 12:47:08;;;;;;;5.10;1.87;;;;;;;;;;4984739;28;20224;-60
2024/01/15 12:49:39;;;;;;;4.20;2.13;;;;;;;;;;4994722;28;20205;-60
2024/01/15 12:52:13;;;;;;;4.17;1.93;;;;;;;;;;4985167;28;20233;-59
2024/01/15 12:54:41;;;;;;;3.47;1.90;;;;;;;;;;4984277;28;20227;-59
2024/01/15 12:57:08;;;;;;;2.90;2.10;;;2.40;99.90;;;;;;4981385;28;20226;-64
2024/01/15 12:59:35;;;;;;;3.97;2.50;;;;;;;;;;4985413;28;20217;-60
2024/01/15 13:02:02;;;;;;;4.07;2.90;;;;;;;;;;4980625;28;20279;-60
2024/01/15 13:04:30;;;;;;;4.57;3.50;;;;;;;;;;4986317;28;20209;-66
2024/01/15 13:06:57;;;;;;;3.13;2.83;;;;;;;;;;4980342;28;20233;-64
2024/01/15 13:09:24;;;;;;;5.20;3.47;;;;;;;;;;4982233;28;20242;-64
2024/01/15 13:11:53;;;;;;;4.53;3.40;;;;;;;;;;4982770;28;20307;-62
2024/01/15 13:14:20;;;;;;;5.73;3.23;;;;;;;;;;4982397;28;20292;-64
2024/01/15 13:16:48;;;;;;;5.33;2.93;;;;;;;;;;4985202;28;20258;-63
2024/01/15 13:19:15;;;;;;;6.50;3.20;;;;;;;;;;4982274;28;20224;-61
2024/01/15 13:21:42;;;;;;;8.10;4.93;;;;;;;;;;4980047;28;20969;-62
2024/01/15 13:24:11;;;;;;;4.03;3.37;;;;;;;;;;4982139;28;20256;-61
2024/01/15 13:26:38;;;;;;;4.07;3.67;;;;;;;;;;4979810;28;20203;-61
2024/01/15 13:29:07;;;;;;;3.20;2.63;;;;;;;;;;4979410;28;20343;-60
2024/01/15 13:31:35;;;;;;;6.40;2.97;;;;;;;;;;4982889;28;20221;-67
2024/01/15 13:34:03;;;;;;;4.07;3.40;;;;;;;;;;4991825;28;20640;-63
2024/01/15 13:36:30;;;;;;;4.33;2.63;;;1.70;99.90;;;;;;4980651;28;20213;-64
2024/01/15 13:38:57;;;;;;;4.77;3.37;;;1.70;99.90;;;;;;4982399;28;20302;-64
2024/01/15 13:41:27;;;;;;;3.63;3.20;;;1.70;99.90;;;;;;4983665;28;20284;-65
2024/01/15 13:43:54;;;;;;;2.53;1.97;;;;;;;;;;4983852;28;20235;-63
2024/01/15 13:46:26;;;;;;;3.23;2.70;;;;;;;;;;4979541;28;20205;-64
2024/01/15 13:48:53;;;;;;;3.50;3.27;;;1.80;99.90;;;;;;4988920;28;20211;-63
2024/01/15 13:51:21;;;;;;;2.83;2.40;;;1.90;99.90;;;;;;4980830;28;20637;-62
2024/01/15 13:53:49;;;;;;;5.37;2.83;;;;;;;;;;4982266;28;20905;-59
2024/01/15 13:56:16;;;;;;;5.13;2.93;;;2.00;99.90;;;;;;4986780;28;20324;-59
2024/01/15 13:58:44;;;;;;;3.00;2.70;;;;;;;;;;4982371;28;20224;-66
2024/01/15 14:01:11;;;;;;;4.47;2.73;;;;;;;;;;4978419;28;20305;-64
2024/01/15 14:03:39;;;;;;;2.87;2.17;;;;;;;;;;4986965;28;20256;-65
2024/01/15 14:06:08;;;;;;;3.17;2.23;;;;;;;;;;4994048;28;20198;-65
2024/01/15 14:08:36;;;;;;;1.97;1.77;;;;;;;;;;4979671;28;21927;-59
2024/01/15 14:11:05;;;;;;;3.43;2.27;;;;;;;;;;4977051;28;20319;-58